sensor_id;sensor_type;location;lat;lon;timestamp;pressure;altitude;pressure_sealevel;temperature;humidity
15750;BME280;7976;52.526;13.326;2023-03-25T00:00:17;99850.16;;;11.04;78.01
15750;BME280;7976;52.526;13.326;2023-03-25T00:02:48;99849.38;;;11.02;78.17
15750;BME280;7976;52.526;13.326;2023-03-25T00:05:19;99852.34;;;10.96;78.46
15750;BME280;7976;52.526;13.326;2023-03-25T00:07:50;99846.50;;;10.91;78.98
15750;BME280;7976;52.526;13.326;2023-03-25T00:10:19;99850.81;;;10.92;79.33
15750;BME280;7976;52.526;13.326;2023-03-25T00:12:46;99844.75;;;10.91;79.28
15750;BME280;7976;52.526;13.326;2023-03-25T00:15:13;99838.66;;;10.91;79.53
15750;BME280;7976;52.526;13.326;2023-03-25T00:17:41;99848.19;;;10.92;79.78
15750;BME280;7976;52.526;13.326;2023-03-25T00:20:11;99844.66;;;10.93;79.57
15750;BME280;7976;52.526;13.326;2023-03-25T00:22:40;99831.56;;;10.93;79.78
15750;BME280;7976;52.526;13.326;2023-03-25T00:25:11;99837.72;;;10.92;79.83
15750;BME280;7976;52.526;13.326;2023-03-25T00:27:43;99831.56;;;10.93;79.98
15750;BME280;7976;52.526;13.326;2023-03-25T00:30:11;99832.44;;;10.93;79.95
15750;BME280;7976;52.526;13.326;2023-03-25T00:32:38;99835.09;;;10.92;80.32
15750;BME280;7976;52.526;13.326;2023-03-25T00:35:06;99836.97;;;10.90;80.30
15750;BME280;7976;52.526;13.326;2023-03-25T00:37:33;99832.66;;;10.89;80.41
15750;BME280;7976;52.526;13.326;2023-03-25T00:40:00;99839.59;;;10.90;80.66
15750;BME280;7976;52.526;13.326;2023-03-25T00:42:30;99846.59;;;10.89;80.68
15750;BME280;7976;52.526;13.326;2023-03-25T00:45:00;99845.13;;;10.84;80.68
15750;BME280;7976;52.526;13.326;2023-03-25T00:47:28;99848.09;;;10.78;80.71
15750;BME280;7976;52.526;13.326;2023-03-25T00:49:55;99847.47;;;10.73;80.94
15750;BME280;7976;52.526;13.326;2023-03-25T00:52:22;99844.09;;;10.71;80.93
15750;BME280;7976;52.526;13.326;2023-03-25T00:54:49;99847.66;;;10.70;81.19
15750;BME280;7976;52.526;13.326;2023-03-25T00:57:17;99841.66;;;10.68;81.35
15750;BME280;7976;52.526;13.326;2023-03-25T00:59:44;99847.19;;;10.62;81.38
15750;BME280;7976;52.526;13.326;2023-03-25T01:02:12;99851.75;;;10.58;81.62
15750;BME280;7976;52.526;13.326;2023-03-25T01:04:41;99856.41;;;10.52;81.96
15750;BME280;7976;52.526;13.326;2023-03-25T01:07:10;99855.69;;;10.50;82.06
15750;BME280;7976;52.526;13.326;2023-03-25T01:09:38;99853.97;;;10.49;82.00
15750;BME280;7976;52.526;13.326;2023-03-25T01:12:06;99853.81;;;10.52;81.93
15750;BME280;7976;52.526;13.326;2023-03-25T01:14:35;99861.59;;;10.53;81.99
15750;BME280;7976;52.526;13.326;2023-03-25T01:17:02;99853.88;;;10.50;82.09
15750;BME280;7976;52.526;13.326;2023-03-25T01:19:31;99843.59;;;10.47;82.44
15750;BME280;7976;52.526;13.326;2023-03-25T01:21:58;99853.97;;;10.49;82.33
15750;BME280;7976;52.526;13.326;2023-03-25T01:24:25;99847.06;;;10.48;82.16
15750;BME280;7976;52.526;13.326;2023-03-25T01:26:52;99843.75;;;10.44;82.36
15750;BME280;7976;52.526;13.326;2023-03-25T01:29:20;99834.28;;;10.42;82.40
15750;BME280;7976;52.526;13.326;2023-03-25T01:31:48;99826.50;;;10.40;82.60
15750;BME280;7976;52.526;13.326;2023-03-25T01:34:15;99833.75;;;10.35;82.41
15750;BME280;7976;52.526;13.326;2023-03-25T01:36:44;99834.75;;;10.33;82.77
15750;BME280;7976;52.526;13.326;2023-03-25T01:39:13;99818.22;;;10.32;82.77
15750;BME280;7976;52.526;13.326;2023-03-25T01:41:45;99815.69;;;10.31;82.94
15750;BME280;7976;52.526;13.326;2023-03-25T01:47:32;99811.78;;;10.22;83.17
15750;BME280;7976;52.526;13.326;2023-03-25T01:49:59;99814.31;;;10.24;83.22
15750;BME280;7976;52.526;13.326;2023-03-25T01:52:27;99809.06;;;10.24;83.12
15750;BME280;7976;52.526;13.326;2023-03-25T01:54:57;99804.63;;;10.26;83.25
15750;BME280;7976;52.526;13.326;2023-03-25T01:57:24;99807.16;;;10.27;83.05
15750;BME280;7976;52.526;13.326;2023-03-25T01:59:54;99809.75;;;10.27;83.26
15750;BME280;7976;52.526;13.326;2023-03-25T02:02:22;99809.75;;;10.27;83.23
15750;BME280;7976;52.526;13.326;2023-03-25T02:05:04;99795.00;;;10.26;83.29
15750;BME280;7976;52.526;13.326;2023-03-25T02:07:40;99794.00;;;10.29;83.48
15750;BME280;7976;52.526;13.326;2023-03-25T02:10:13;99781.69;;;10.31;83.38
15750;BME280;7976;52.526;13.326;2023-03-25T02:12:43;99793.69;;;10.35;83.12
15750;BME280;7976;52.526;13.326;2023-03-25T02:15:16;99786.59;;;10.37;83.43
15750;BME280;7976;52.526;13.326;2023-03-25T02:18:05;99780.03;;;10.45;83.12
15750;BME280;7976;52.526;13.326;2023-03-25T02:21:10;99777.34;;;10.47;82.98
15750;BME280;7976;52.526;13.326;2023-03-25T02:24:41;99775.66;;;10.46;82.90
15750;BME280;7976;52.526;13.326;2023-03-25T02:27:26;99779.97;;;10.47;82.86
15750;BME280;7976;52.526;13.326;2023-03-25T02:30:47;99782.66;;;10.45;83.08
15750;BME280;7976;52.526;13.326;2023-03-25T02:33:40;99770.53;;;10.44;83.18
15750;BME280;7976;52.526;13.326;2023-03-25T02:37:01;99766.16;;;10.45;83.14
15750;BME280;7976;52.526;13.326;2023-03-25T02:39:40;99766.66;;;10.51;83.05
15750;BME280;7976;52.526;13.326;2023-03-25T02:42:19;99765.63;;;10.54;82.96
15750;BME280;7976;52.526;13.326;2023-03-25T02:44:58;99750.19;;;10.49;82.97
15750;BME280;7976;52.526;13.326;2023-03-25T02:47:31;99756.41;;;10.47;82.84
15750;BME280;7976;52.526;13.326;2023-03-25T02:50:05;99747.84;;;10.45;83.00
15750;BME280;7976;52.526;13.326;2023-03-25T02:52:36;99748.66;;;10.45;83.01
15750;BME280;7976;52.526;13.326;2023-03-25T02:55:10;99743.59;;;10.42;82.90
15750;BME280;7976;52.526;13.326;2023-03-25T02:57:44;99747.16;;;10.41;83.00
15750;BME280;7976;52.526;13.326;2023-03-25T03:00:15;99744.63;;;10.40;82.99
15750;BME280;7976;52.526;13.326;2023-03-25T03:02:52;99741.06;;;10.41;82.87
15750;BME280;7976;52.526;13.326;2023-03-25T03:05:27;99745.34;;;10.42;83.26
15750;BME280;7976;52.526;13.326;2023-03-25T03:08:21;99742.34;;;10.49;83.27
15750;BME280;7976;52.526;13.326;2023-03-25T03:11:02;99739.31;;;10.57;83.06
15750;BME280;7976;52.526;13.326;2023-03-25T03:13:56;99734.16;;;10.55;82.81
15750;BME280;7976;52.526;13.326;2023-03-25T03:16:34;99749.19;;;10.52;82.78
15750;BME280;7976;52.526;13.326;2023-03-25T03:19:19;99746.56;;;10.52;82.77
15750;BME280;7976;52.526;13.326;2023-03-25T03:21:56;99751.66;;;10.55;82.85
15750;BME280;7976;52.526;13.326;2023-03-25T03:24:30;99759.72;;;10.50;83.26
15750;BME280;7976;52.526;13.326;2023-03-25T03:27:08;99757.44;;;10.44;83.70
15750;BME280;7976;52.526;13.326;2023-03-25T03:29:44;99757.09;;;10.35;84.49
15750;BME280;7976;52.526;13.326;2023-03-25T03:32:18;99757.38;;;10.29;84.85
15750;BME280;7976;52.526;13.326;2023-03-25T03:34:51;99761.03;;;10.26;85.76
15750;BME280;7976;52.526;13.326;2023-03-25T03:37:26;99755.41;;;10.17;86.04
15750;BME280;7976;52.526;13.326;2023-03-25T03:39:56;99759.34;;;10.08;86.92
15750;BME280;7976;52.526;13.326;2023-03-25T03:42:33;99758.78;;;10.01;87.30
15750;BME280;7976;52.526;13.326;2023-03-25T03:45:07;99769.53;;;9.95;88.21
15750;BME280;7976;52.526;13.326;2023-03-25T03:47:42;99767.53;;;9.83;88.87
15750;BME280;7976;52.526;13.326;2023-03-25T03:50:16;99769.25;;;9.84;89.41
15750;BME280;7976;52.526;13.326;2023-03-25T03:52:51;99764.94;;;9.83;90.01
15750;BME280;7976;52.526;13.326;2023-03-25T03:55:29;99758.19;;;9.79;90.62
15750;BME280;7976;52.526;13.326;2023-03-25T03:58:09;99754.72;;;9.79;91.53
15750;BME280;7976;52.526;13.326;2023-03-25T04:00:44;99755.41;;;9.82;92.02
15750;BME280;7976;52.526;13.326;2023-03-25T04:03:21;99741.56;;;9.80;92.24
15750;BME280;7976;52.526;13.326;2023-03-25T04:05:56;99747.25;;;9.88;92.90
15750;BME280;7976;52.526;13.326;2023-03-25T04:08:31;99739.25;;;9.91;93.32
15750;BME280;7976;52.526;13.326;2023-03-25T04:11:04;99745.50;;;9.89;93.44
15750;BME280;7976;52.526;13.326;2023-03-25T04:13:40;99742.97;;;9.87;93.68
15750;BME280;7976;52.526;13.326;2023-03-25T04:16:08;99753.41;;;9.87;93.94
15750;BME280;7976;52.526;13.326;2023-03-25T04:18:35;99755.25;;;9.85;94.07
15750;BME280;7976;52.526;13.326;2023-03-25T04:21:02;99750.03;;;9.85;94.41
15750;BME280;7976;52.526;13.326;2023-03-25T04:23:29;99755.25;;;9.85;94.54
15750;BME280;7976;52.526;13.326;2023-03-25T04:25:57;99757.72;;;9.88;95.10
15750;BME280;7976;52.526;13.326;2023-03-25T04:28:27;99751.50;;;9.91;95.22
15750;BME280;7976;52.526;13.326;2023-03-25T04:30:55;99758.31;;;9.93;95.16
15750;BME280;7976;52.526;13.326;2023-03-25T04:33:25;99761.88;;;9.92;95.46
15750;BME280;7976;52.526;13.326;2023-03-25T04:35:54;99757.53;;;9.91;95.69
15750;BME280;7976;52.526;13.326;2023-03-25T04:38:21;99752.41;;;9.90;95.39
15750;BME280;7976;52.526;13.326;2023-03-25T04:40:47;99750.88;;;9.86;95.67
15750;BME280;7976;52.526;13.326;2023-03-25T04:43:16;99750.97;;;9.84;95.85
15750;BME280;7976;52.526;13.326;2023-03-25T04:45:43;99755.41;;;9.82;95.95
15750;BME280;7976;52.526;13.326;2023-03-25T04:48:22;99761.53;;;9.81;96.10
15750;BME280;7976;52.526;13.326;2023-03-25T04:50:50;99753.00;;;9.78;95.84
15750;BME280;7976;52.526;13.326;2023-03-25T04:53:17;99748.72;;;9.77;95.98
15750;BME280;7976;52.526;13.326;2023-03-25T04:55:44;99751.41;;;9.75;96.10
15750;BME280;7976;52.526;13.326;2023-03-25T04:58:13;99747.25;;;9.71;95.91
15750;BME280;7976;52.526;13.326;2023-03-25T05:00:42;99748.97;;;9.72;96.10
15750;BME280;7976;52.526;13.326;2023-03-25T05:03:10;99750.63;;;9.73;96.09
15750;BME280;7976;52.526;13.326;2023-03-25T05:05:38;99754.09;;;9.74;96.23
15750;BME280;7976;52.526;13.326;2023-03-25T05:08:05;99753.94;;;9.77;95.90
15750;BME280;7976;52.526;13.326;2023-03-25T05:10:33;99749.56;;;9.77;95.74
15750;BME280;7976;52.526;13.326;2023-03-25T05:13:04;99751.25;;;9.78;95.89
15750;BME280;7976;52.526;13.326;2023-03-25T05:15:34;99748.63;;;9.78;95.73
15750;BME280;7976;52.526;13.326;2023-03-25T05:18:05;99750.63;;;9.73;95.33
15750;BME280;7976;52.526;13.326;2023-03-25T05:20:35;99744.63;;;9.71;95.73
15750;BME280;7976;52.526;13.326;2023-03-25T05:23:03;99747.25;;;9.71;95.67
15750;BME280;7976;52.526;13.326;2023-03-25T05:25:30;99749.03;;;9.71;95.20
15750;BME280;7976;52.526;13.326;2023-03-25T05:27:59;99744.72;;;9.70;95.19
15750;BME280;7976;52.526;13.326;2023-03-25T05:30:30;99746.50;;;9.69;94.96
15750;BME280;7976;52.526;13.326;2023-03-25T05:32:57;99748.19;;;9.70;95.17
15750;BME280;7976;52.526;13.326;2023-03-25T05:35:24;99744.34;;;9.77;95.07
15750;BME280;7976;52.526;13.326;2023-03-25T05:37:52;99743.13;;;9.84;94.96
15750;BME280;7976;52.526;13.326;2023-03-25T05:40:20;99737.50;;;9.92;94.68
15750;BME280;7976;52.526;13.326;2023-03-25T05:42:47;99740.63;;;9.98;94.54
15750;BME280;7976;52.526;13.326;2023-03-25T05:45:14;99749.16;;;10.02;94.38
15750;BME280;7976;52.526;13.326;2023-03-25T05:47:42;99745.63;;;10.03;94.21
15750;BME280;7976;52.526;13.326;2023-03-25T05:50:09;99753.34;;;10.06;93.99
15750;BME280;7976;52.526;13.326;2023-03-25T05:52:36;99762.16;;;10.03;93.62
15750;BME280;7976;52.526;13.326;2023-03-25T05:55:09;99764.94;;;10.00;93.52
15750;BME280;7976;52.526;13.326;2023-03-25T05:57:38;99770.31;;;9.97;93.27
15750;BME280;7976;52.526;13.326;2023-03-25T06:00:07;99776.31;;;9.99;92.95
15750;BME280;7976;52.526;13.326;2023-03-25T06:02:39;99773.72;;;9.99;92.77
15750;BME280;7976;52.526;13.326;2023-03-25T06:05:08;99771.84;;;10.01;92.86
15750;BME280;7976;52.526;13.326;2023-03-25T06:07:38;99775.91;;;10.07;92.55
15750;BME280;7976;52.526;13.326;2023-03-25T06:10:09;99769.56;;;10.13;92.53
15750;BME280;7976;52.526;13.326;2023-03-25T06:12:38;99774.56;;;10.17;92.01
15750;BME280;7976;52.526;13.326;2023-03-25T06:15:07;99770.09;;;10.19;91.73
15750;BME280;7976;52.526;13.326;2023-03-25T06:17:35;99772.88;;;10.16;91.62
15750;BME280;7976;52.526;13.326;2023-03-25T06:20:05;99787.72;;;10.16;91.26
15750;BME280;7976;52.526;13.326;2023-03-25T06:22:38;99792.00;;;10.17;90.95
15750;BME280;7976;52.526;13.326;2023-03-25T06:25:06;99784.84;;;10.20;90.40
15750;BME280;7976;52.526;13.326;2023-03-25T06:27:33;99795.38;;;10.19;90.14
15750;BME280;7976;52.526;13.326;2023-03-25T06:30:08;99792.09;;;10.15;89.71
15750;BME280;7976;52.526;13.326;2023-03-25T06:32:35;99798.31;;;10.13;89.59
15750;BME280;7976;52.526;13.326;2023-03-25T06:35:04;99792.31;;;10.10;89.51
15750;BME280;7976;52.526;13.326;2023-03-25T06:37:36;99798.31;;;10.13;89.32
15750;BME280;7976;52.526;13.326;2023-03-25T06:40:11;99793.09;;;10.13;89.13
15750;BME280;7976;52.526;13.326;2023-03-25T06:42:38;99792.00;;;10.17;88.84
15750;BME280;7976;52.526;13.326;2023-03-25T06:45:36;99786.41;;;10.24;88.80
15750;BME280;7976;52.526;13.326;2023-03-25T06:48:17;99789.53;;;10.31;88.49
15750;BME280;7976;52.526;13.326;2023-03-25T06:50:43;99783.94;;;10.38;88.77
15750;BME280;7976;52.526;13.326;2023-03-25T06:53:11;99787.97;;;10.44;88.23
15750;BME280;7976;52.526;13.326;2023-03-25T06:55:37;99789.59;;;10.46;88.04
15750;BME280;7976;52.526;13.326;2023-03-25T06:58:05;99788.06;;;10.42;87.90
15750;BME280;7976;52.526;13.326;2023-03-25T07:00:32;99776.75;;;10.42;87.80
15750;BME280;7976;52.526;13.326;2023-03-25T07:03:00;99778.44;;;10.43;87.87
15750;BME280;7976;52.526;13.326;2023-03-25T07:05:27;99783.69;;;10.43;87.66
15750;BME280;7976;52.526;13.326;2023-03-25T07:07:54;99787.06;;;10.45;87.47
15750;BME280;7976;52.526;13.326;2023-03-25T07:10:21;99787.75;;;10.48;87.70
15750;BME280;7976;52.526;13.326;2023-03-25T07:12:48;99791.81;;;10.54;87.33
15750;BME280;7976;52.526;13.326;2023-03-25T07:15:15;99791.50;;;10.60;87.36
15750;BME280;7976;52.526;13.326;2023-03-25T07:17:43;99795.63;;;10.64;87.36
15750;BME280;7976;52.526;13.326;2023-03-25T07:20:15;99800.63;;;10.68;87.17
15750;BME280;7976;52.526;13.326;2023-03-25T07:22:42;99788.22;;;10.72;86.88
15750;BME280;7976;52.526;13.326;2023-03-25T07:25:09;99805.97;;;10.82;86.97
15750;BME280;7976;52.526;13.326;2023-03-25T07:27:36;99802.19;;;10.88;86.49
15750;BME280;7976;52.526;13.326;2023-03-25T07:30:09;99801.03;;;10.93;86.26
15750;BME280;7976;52.526;13.326;2023-03-25T07:32:36;99794.59;;;10.99;85.88
15750;BME280;7976;52.526;13.326;2023-03-25T07:35:03;99805.56;;;11.05;85.34
15750;BME280;7976;52.526;13.326;2023-03-25T07:37:32;99800.78;;;11.13;85.00
15750;BME280;7976;52.526;13.326;2023-03-25T07:39:59;99808.13;;;11.22;84.50
15750;BME280;7976;52.526;13.326;2023-03-25T07:42:26;99804.31;;;11.28;83.49
15750;BME280;7976;52.526;13.326;2023-03-25T07:45:12;99804.81;;;11.34;82.59
15750;BME280;7976;52.526;13.326;2023-03-25T07:47:43;99794.75;;;11.43;82.24
15750;BME280;7976;52.526;13.326;2023-03-25T07:50:15;99811.81;;;11.50;81.61
15750;BME280;7976;52.526;13.326;2023-03-25T07:52:43;99802.03;;;11.53;80.97
15750;BME280;7976;52.526;13.326;2023-03-25T07:55:11;99803.53;;;11.57;80.61
15750;BME280;7976;52.526;13.326;2023-03-25T07:57:40;99808.28;;;11.66;79.86
15750;BME280;7976;52.526;13.326;2023-03-25T08:00:08;99811.13;;;11.77;78.71
15750;BME280;7976;52.526;13.326;2023-03-25T08:02:39;99807.13;;;11.86;78.29
15750;BME280;7976;52.526;13.326;2023-03-25T08:05:07;99811.19;;;11.91;77.44
15750;BME280;7976;52.526;13.326;2023-03-25T08:07:34;99804.84;;;11.95;77.34
15750;BME280;7976;52.526;13.326;2023-03-25T08:10:03;99802.63;;;12.03;76.60
15750;BME280;7976;52.526;13.326;2023-03-25T08:12:30;99813.41;;;12.13;76.39
15750;BME280;7976;52.526;13.326;2023-03-25T08:14:56;99805.78;;;12.24;75.86
15750;BME280;7976;52.526;13.326;2023-03-25T08:17:24;99815.81;;;12.31;75.42
15750;BME280;7976;52.526;13.326;2023-03-25T08:19:51;99813.56;;;12.39;74.89
15750;BME280;7976;52.526;13.326;2023-03-25T08:22:18;99805.81;;;12.52;74.43
15750;BME280;7976;52.526;13.326;2023-03-25T08:24:45;99812.09;;;12.63;74.23
15750;BME280;7976;52.526;13.326;2023-03-25T08:27:13;99806.38;;;12.71;73.89
15750;BME280;7976;52.526;13.326;2023-03-25T08:29:40;99809.09;;;12.70;73.13
15750;BME280;7976;52.526;13.326;2023-03-25T08:32:10;99805.44;;;12.58;72.66
15750;BME280;7976;52.526;13.326;2023-03-25T08:34:37;99800.47;;;12.53;72.33
15750;BME280;7976;52.526;13.326;2023-03-25T08:37:04;99809.66;;;12.60;72.16
15750;BME280;7976;52.526;13.326;2023-03-25T08:39:32;99809.00;;;12.71;71.94
15750;BME280;7976;52.526;13.326;2023-03-25T08:42:04;99810.97;;;12.82;71.39
15750;BME280;7976;52.526;13.326;2023-03-25T08:44:33;99806.75;;;12.93;71.22
15750;BME280;7976;52.526;13.326;2023-03-25T08:47:00;99801.81;;;13.03;70.75
15750;BME280;7976;52.526;13.326;2023-03-25T08:49:27;99803.59;;;13.02;70.01
15750;BME280;7976;52.526;13.326;2023-03-25T08:51:54;99807.78;;;13.05;69.83
15750;BME280;7976;52.526;13.326;2023-03-25T08:54:22;99803.75;;;13.13;69.67
15750;BME280;7976;52.526;13.326;2023-03-25T08:56:49;99804.19;;;13.20;69.49
15750;BME280;7976;52.526;13.326;2023-03-25T08:59:16;99795.59;;;13.18;69.19
15750;BME280;7976;52.526;13.326;2023-03-25T09:01:45;99799.53;;;13.11;69.14
15750;BME280;7976;52.526;13.326;2023-03-25T09:04:12;99800.66;;;13.07;69.03
15750;BME280;7976;52.526;13.326;2023-03-25T09:06:39;99803.56;;;13.16;68.48
15750;BME280;7976;52.526;13.326;2023-03-25T09:09:06;99805.75;;;13.36;68.06
15750;BME280;7976;52.526;13.326;2023-03-25T09:11:35;99796.19;;;13.49;66.93
15750;BME280;7976;52.526;13.326;2023-03-25T09:14:02;99801.03;;;13.55;66.23
15750;BME280;7976;52.526;13.326;2023-03-25T09:16:29;99798.50;;;13.54;65.92
15750;BME280;7976;52.526;13.326;2023-03-25T09:18:57;99795.31;;;13.49;66.57
15750;BME280;7976;52.526;13.326;2023-03-25T09:21:25;99798.72;;;13.37;66.27
15750;BME280;7976;52.526;13.326;2023-03-25T09:23:51;99797.06;;;13.22;66.17
15750;BME280;7976;52.526;13.326;2023-03-25T09:26:18;99810.63;;;13.02;66.39
15750;BME280;7976;52.526;13.326;2023-03-25T09:28:45;99803.94;;;12.82;66.82
15750;BME280;7976;52.526;13.326;2023-03-25T09:31:12;99818.09;;;12.66;67.16
15750;BME280;7976;52.526;13.326;2023-03-25T09:33:39;99815.25;;;12.54;67.73
15750;BME280;7976;52.526;13.326;2023-03-25T09:36:08;99817.69;;;12.43;68.43
15750;BME280;7976;52.526;13.326;2023-03-25T09:38:36;99819.19;;;12.33;69.34
15750;BME280;7976;52.526;13.326;2023-03-25T09:41:39;99816.75;;;12.30;70.39
15750;BME280;7976;52.526;13.326;2023-03-25T09:44:17;99825.19;;;12.35;70.43
15750;BME280;7976;52.526;13.326;2023-03-25T09:46:45;99811.06;;;12.52;70.46
15750;BME280;7976;52.526;13.326;2023-03-25T09:49:17;99812.66;;;12.83;68.96
15750;BME280;7976;52.526;13.326;2023-03-25T09:51:50;99812.13;;;13.06;67.47
15750;BME280;7976;52.526;13.326;2023-03-25T09:54:22;99807.38;;;13.25;66.33
15750;BME280;7976;52.526;13.326;2023-03-25T09:56:52;99800.97;;;13.43;65.67
15750;BME280;7976;52.526;13.326;2023-03-25T09:59:22;99814.19;;;13.41;65.14
15750;BME280;7976;52.526;13.326;2023-03-25T10:01:59;99817.44;;;13.32;64.21
15750;BME280;7976;52.526;13.326;2023-03-25T10:04:51;99821.78;;;13.19;63.70
15750;BME280;7976;52.526;13.326;2023-03-25T10:07:42;99814.47;;;13.10;64.06
15750;BME280;7976;52.526;13.326;2023-03-25T10:10:20;99814.84;;;13.04;64.36
15750;BME280;7976;52.526;13.326;2023-03-25T10:13:01;99810.13;;;12.95;64.50
15750;BME280;7976;52.526;13.326;2023-03-25T10:15:37;99812.47;;;12.86;64.65
15750;BME280;7976;52.526;13.326;2023-03-25T10:18:32;99813.41;;;12.85;64.53
15750;BME280;7976;52.526;13.326;2023-03-25T10:21:07;99809.09;;;12.84;64.45
15750;BME280;7976;52.526;13.326;2023-03-25T10:23:42;99803.84;;;12.98;64.44
15750;BME280;7976;52.526;13.326;2023-03-25T10:26:17;99803.19;;;13.22;64.26
15750;BME280;7976;52.526;13.326;2023-03-25T10:28:53;99803.50;;;13.44;64.17
15750;BME280;7976;52.526;13.326;2023-03-25T10:31:25;99798.09;;;13.60;63.58
15750;BME280;7976;52.526;13.326;2023-03-25T10:34:04;99792.81;;;13.60;63.03
15750;BME280;7976;52.526;13.326;2023-03-25T10:36:36;99785.03;;;13.58;62.42
15750;BME280;7976;52.526;13.326;2023-03-25T10:39:16;99789.06;;;13.64;62.36
15750;BME280;7976;52.526;13.326;2023-03-25T10:41:50;99796.97;;;13.64;62.27
15750;BME280;7976;52.526;13.326;2023-03-25T10:44:21;99794.13;;;13.67;61.29
15750;BME280;7976;52.526;13.326;2023-03-25T10:46:55;99805.81;;;13.63;61.36
15750;BME280;7976;52.526;13.326;2023-03-25T10:49:28;99781.72;;;13.69;60.80
15750;BME280;7976;52.526;13.326;2023-03-25T10:51:56;99795.00;;;13.80;60.85
15750;BME280;7976;52.526;13.326;2023-03-25T10:54:32;99789.56;;;13.83;60.98
15750;BME280;7976;52.526;13.326;2023-03-25T10:57:06;99788.28;;;13.88;60.73
15750;BME280;7976;52.526;13.326;2023-03-25T10:59:40;99776.94;;;13.88;60.94
15750;BME280;7976;52.526;13.326;2023-03-25T11:02:16;99772.84;;;13.97;61.50
15750;BME280;7976;52.526;13.326;2023-03-25T11:04:45;99770.88;;;14.13;61.49
15750;BME280;7976;52.526;13.326;2023-03-25T11:07:19;99777.44;;;14.20;61.23
15750;BME280;7976;52.526;13.326;2023-03-25T11:09:47;99775.03;;;14.29;60.98
15750;BME280;7976;52.526;13.326;2023-03-25T11:12:18;99768.81;;;14.30;60.81
15750;BME280;7976;52.526;13.326;2023-03-25T11:14:54;99778.72;;;14.39;61.17
15750;BME280;7976;52.526;13.326;2023-03-25T11:17:24;99772.41;;;14.54;60.53
15750;BME280;7976;52.526;13.326;2023-03-25T11:19:54;99770.31;;;14.59;60.18
15750;BME280;7976;52.526;13.326;2023-03-25T11:22:26;99764.00;;;14.49;60.32
15750;BME280;7976;52.526;13.326;2023-03-25T11:25:02;99769.03;;;14.27;60.09
15750;BME280;7976;52.526;13.326;2023-03-25T11:27:46;99787.16;;;14.05;60.13
15750;BME280;7976;52.526;13.326;2023-03-25T11:30:17;99795.00;;;13.80;60.98
15750;BME280;7976;52.526;13.326;2023-03-25T11:32:57;99804.34;;;13.45;62.46
15750;BME280;7976;52.526;13.326;2023-03-25T11:35:28;99781.78;;;13.00;64.85
15750;BME280;7976;52.526;13.326;2023-03-25T11:37:59;99772.63;;;12.79;66.12
15750;BME280;7976;52.526;13.326;2023-03-25T11:40:29;99769.50;;;12.73;66.45
15750;BME280;7976;52.526;13.326;2023-03-25T11:42:59;99780.59;;;12.63;67.06
15750;BME280;7976;52.526;13.326;2023-03-25T11:45:32;99780.38;;;12.52;67.86
15750;BME280;7976;52.526;13.326;2023-03-25T11:48:08;99772.63;;;12.37;69.52
15750;BME280;7976;52.526;13.326;2023-03-25T11:50:36;99762.38;;;12.32;71.41
15750;BME280;7976;52.526;13.326;2023-03-25T11:53:04;99750.50;;;12.41;72.32
15750;BME280;7976;52.526;13.326;2023-03-25T11:55:43;99762.97;;;12.51;72.79
15750;BME280;7976;52.526;13.326;2023-03-25T11:58:17;99750.13;;;12.61;73.24
15750;BME280;7976;52.526;13.326;2023-03-25T12:00:47;99739.50;;;12.91;73.26
15750;BME280;7976;52.526;13.326;2023-03-25T12:03:20;99740.38;;;13.32;72.63
15750;BME280;7976;52.526;13.326;2023-03-25T12:05:59;99741.53;;;13.67;70.68
15750;BME280;7976;52.526;13.326;2023-03-25T12:08:29;99747.28;;;13.86;68.56
15750;BME280;7976;52.526;13.326;2023-03-25T12:11:03;99731.72;;;13.96;66.70
15750;BME280;7976;52.526;13.326;2023-03-25T12:13:48;99732.25;;;14.01;65.27
15750;BME280;7976;52.526;13.326;2023-03-25T12:16:30;99725.81;;;13.92;64.95
15750;BME280;7976;52.526;13.326;2023-03-25T12:19:13;99712.34;;;13.84;64.33
15750;BME280;7976;52.526;13.326;2023-03-25T12:22:01;99735.16;;;13.83;63.90
15750;BME280;7976;52.526;13.326;2023-03-25T12:24:55;99720.97;;;13.86;64.10
15750;BME280;7976;52.526;13.326;2023-03-25T12:27:42;99717.91;;;13.92;64.19
15750;BME280;7976;52.526;13.326;2023-03-25T12:30:26;99712.38;;;14.09;63.64
15750;BME280;7976;52.526;13.326;2023-03-25T12:33:04;99719.72;;;14.17;62.53
15750;BME280;7976;52.526;13.326;2023-03-25T12:35:40;99708.91;;;14.21;62.57
15750;BME280;7976;52.526;13.326;2023-03-25T12:38:25;99704.25;;;14.12;61.22
15750;BME280;7976;52.526;13.326;2023-03-25T12:41:25;99702.16;;;14.05;60.67
15750;BME280;7976;52.526;13.326;2023-03-25T12:44:03;99703.53;;;13.98;60.85
15750;BME280;7976;52.526;13.326;2023-03-25T12:46:58;99701.75;;;13.98;61.56
15750;BME280;7976;52.526;13.326;2023-03-25T12:49:49;99705.59;;;14.05;61.13
15750;BME280;7976;52.526;13.326;2023-03-25T12:52:29;99707.63;;;14.14;60.55
15750;BME280;7976;52.526;13.326;2023-03-25T12:55:24;99710.03;;;14.17;59.92
15750;BME280;7976;52.526;13.326;2023-03-25T12:58:16;99711.72;;;14.06;59.95
15750;BME280;7976;52.526;13.326;2023-03-25T13:00:55;99696.56;;;13.84;59.90
15750;BME280;7976;52.526;13.326;2023-03-25T13:03:43;99692.53;;;13.66;61.42
15750;BME280;7976;52.526;13.326;2023-03-25T13:06:22;99712.22;;;13.46;61.88
15750;BME280;7976;52.526;13.326;2023-03-25T13:09:01;99712.63;;;13.28;62.98
15750;BME280;7976;52.526;13.326;2023-03-25T13:11:34;99738.81;;;13.15;63.59
15750;BME280;7976;52.526;13.326;2023-03-25T13:14:11;99759.56;;;12.92;65.53
15750;BME280;7976;52.526;13.326;2023-03-25T13:16:44;99750.94;;;12.19;70.97
15750;BME280;7976;52.526;13.326;2023-03-25T13:19:16;99737.53;;;11.51;75.39
15750;BME280;7976;52.526;13.326;2023-03-25T13:21:49;99727.78;;;11.23;78.74
15750;BME280;7976;52.526;13.326;2023-03-25T13:24:22;99723.91;;;11.14;80.33
15750;BME280;7976;52.526;13.326;2023-03-25T13:26:52;99722.28;;;11.12;81.86
15750;BME280;7976;52.526;13.326;2023-03-25T13:29:27;99724.31;;;11.07;82.76
15750;BME280;7976;52.526;13.326;2023-03-25T13:32:03;99739.38;;;11.03;84.02
15750;BME280;7976;52.526;13.326;2023-03-25T13:34:39;99738.63;;;11.01;84.91